createdAt,value
2022-10-17T00:01:01.055Z,101808.59
2022-10-17T00:02:03.172Z,101810.32
2022-10-17T00:03:05.530Z,101811.17
2022-10-17T00:04:07.609Z,101808.56
2022-10-17T00:05:09.480Z,101808.56
2022-10-17T00:06:14.067Z,101814.55
2022-10-17T00:07:15.995Z,101814.59
2022-10-17T00:08:18.597Z,101815.45
2022-10-17T00:09:20.679Z,101812.69
2022-10-17T00:10:23.075Z,101816.13
2022-10-17T00:11:24.956Z,101816.02
2022-10-17T00:12:27.299Z,101811.71
2022-10-17T00:13:30.322Z,101817.87
2022-10-17T00:14:32.553Z,101817.83
2022-10-17T00:15:34.748Z,101817.87
2022-10-17T00:16:37.056Z,101818.75
2022-10-17T00:17:39.064Z,101822.25
2022-10-17T00:18:40.977Z,101819.67
2022-10-17T00:19:43.120Z,101818.78
2022-10-17T00:20:45.439Z,101816.14
2022-10-17T00:21:48.873Z,101814.43
2022-10-17T00:22:51.475Z,101818.78
2022-10-17T00:23:54.979Z,101821.39
2022-10-17T00:24:57.179Z,101821.36
2022-10-17T00:26:05.000Z,101817.04
2022-10-17T00:27:07.127Z,101819.64
2022-10-17T00:29:21.509Z,101813.67
2022-10-17T00:30:23.820Z,101817.08
2022-10-17T00:31:25.943Z,101821.23
2022-10-17T00:32:28.275Z,101824.44
2022-10-17T00:33:31.646Z,101831.52
2022-10-17T00:34:33.808Z,101833.27
2022-10-17T00:35:35.723Z,101823.63
2022-10-17T00:36:37.912Z,101834.97
2022-10-17T00:37:40.153Z,101835.05
2022-10-17T00:38:44.389Z,101834.14
2022-10-17T00:39:46.328Z,101830.66
2022-10-17T00:40:48.495Z,101828.02
2022-10-17T00:41:50.760Z,101820.23
2022-10-17T00:42:52.826Z,101829.91
2022-10-17T00:44:01.079Z,101825.54
2022-10-17T00:45:06.905Z,101807.28
2022-10-17T00:46:09.025Z,101820.32
2022-10-17T00:47:17.658Z,101816.89
2022-10-17T00:48:23.311Z,101817.75
2022-10-17T00:49:27.966Z,101818.53
2022-10-17T00:50:30.751Z,101819.40
2022-10-17T00:51:48.693Z,101822.85
2022-10-17T00:52:52.221Z,101821.08
2022-10-17T00:53:55.595Z,101822.72
2022-10-17T00:55:03.923Z,101827.05
2022-10-17T00:56:06.759Z,101819.22
2022-10-17T00:57:10.207Z,101825.35
2022-10-17T00:58:12.863Z,101825.45
2022-10-17T00:59:17.010Z,101818.44
2022-10-17T01:00:19.942Z,101815.02
2022-10-17T01:01:22.907Z,101810.73
2022-10-17T01:02:25.092Z,101786.21
2022-10-17T01:03:27.497Z,101808.84
2022-10-17T01:04:29.587Z,101804.40
2022-10-17T01:05:31.774Z,101807.11
2022-10-17T01:06:33.847Z,101818.38
2022-10-17T01:07:37.538Z,101819.27
2022-10-17T01:08:40.086Z,101817.55
2022-10-17T01:09:44.497Z,101822.80
2022-10-17T01:11:08.912Z,101822.80
2022-10-17T01:12:26.437Z,101816.83
2022-10-17T01:13:35.406Z,101821.95
2022-10-17T01:15:03.570Z,101829.70
2022-10-17T01:16:26.123Z,101827.98
2022-10-17T01:17:57.747Z,101829.64
2022-10-17T01:19:15.025Z,101826.22
2022-10-17T01:21:50.489Z,101822.84
2022-10-17T01:23:08.548Z,101819.19
2022-10-17T01:24:31.655Z,101814.01
2022-10-17T01:25:52.763Z,101808.84
2022-10-17T01:27:04.142Z,101809.73
2022-10-17T01:28:27.921Z,101801.98
2022-10-17T01:29:33.688Z,101805.44
2022-10-17T01:30:59.075Z,101799.48
2022-10-17T01:32:16.826Z,101799.48
2022-10-17T01:33:31.300Z,101805.52
2022-10-17T01:35:54.867Z,101805.63
2022-10-17T01:37:09.960Z,101804.64
2022-10-17T01:39:30.273Z,101801.35
2022-10-17T01:40:53.171Z,101809.06
2022-10-17T01:42:01.873Z,101805.59
2022-10-17T01:43:16.458Z,101813.53
2022-10-17T01:44:31.183Z,101805.67
2022-10-17T01:45:42.790Z,101810.89
2022-10-17T01:46:48.666Z,101803.08
2022-10-17T01:47:53.765Z,101810.94
2022-10-17T01:48:59.478Z,101810.16
2022-10-17T01:50:14.463Z,101804.03
2022-10-17T01:51:20.127Z,101804.02
2022-10-17T01:52:28.525Z,101802.22
2022-10-17T01:53:37.084Z,101803.94
2022-10-17T01:54:42.855Z,101805.67
2022-10-17T01:55:47.397Z,101803.92
2022-10-17T01:56:53.340Z,101801.31
2022-10-17T01:57:59.187Z,101805.61
2022-10-17T02:00:21.317Z,101818.91
2022-10-17T02:01:26.030Z,101821.39
2022-10-17T02:02:28.829Z,101823.83
2022-10-17T02:03:32.830Z,101828.11
2022-10-17T02:04:35.997Z,101817.59
2022-10-17T02:05:40.904Z,101809.63
2022-10-17T02:06:43.246Z,101810.41
2022-10-17T02:07:45.181Z,101807.87
2022-10-17T02:08:49.623Z,101813.00
2022-10-17T02:09:52.015Z,101812.11
2022-10-17T02:11:03.553Z,101803.34
2022-10-17T02:12:25.863Z,101802.48
2022-10-17T02:14:05.128Z,101802.46
2022-10-17T02:15:26.252Z,101801.58
2022-10-17T02:16:32.184Z,101789.39
2022-10-17T02:17:50.051Z,101789.39
2022-10-17T02:19:01.709Z,101789.39
2022-10-17T02:20:07.805Z,101783.32
2022-10-17T02:21:22.601Z,101785.93
2022-10-17T02:22:31.288Z,101781.63
2022-10-17T02:23:43.212Z,101785.17
2022-10-17T02:25:01.053Z,101778.19
2022-10-17T02:26:12.655Z,101768.56
2022-10-17T02:27:16.342Z,101786.95
2022-10-17T02:28:22.094Z,101794.86
2022-10-17T02:29:27.825Z,101789.56
2022-10-17T02:30:53.467Z,101792.27
2022-10-17T02:32:02.062Z,101794.07
2022-10-17T02:33:10.768Z,101802.85
2022-10-17T02:34:28.641Z,101804.61
2022-10-17T02:36:45.535Z,101795.22
2022-10-17T02:37:49.487Z,101796.78
2022-10-17T02:38:53.831Z,101793.29
2022-10-17T02:39:59.456Z,101800.30
2022-10-17T02:41:03.032Z,101794.17
2022-10-17T02:42:08.414Z,101800.30
2022-10-17T02:43:11.100Z,101794.19
2022-10-17T02:44:14.212Z,101768.72
2022-10-17T02:45:17.093Z,101795.87
2022-10-17T02:46:22.834Z,101803.68
2022-10-17T02:47:34.544Z,101805.44
2022-10-17T02:48:39.849Z,101800.23
2022-10-17T02:49:45.542Z,101792.41
2022-10-17T02:50:54.055Z,101781.14
2022-10-17T02:52:02.611Z,101782.86
2022-10-17T02:53:08.275Z,101786.34
2022-10-17T02:54:39.980Z,101780.23
2022-10-17T02:55:51.720Z,101770.62
2022-10-17T02:57:13.079Z,101792.50
2022-10-17T02:58:24.754Z,101791.56
2022-10-17T02:59:30.122Z,101804.54
2022-10-17T03:00:33.989Z,101802.85
2022-10-17T03:01:36.273Z,101799.48
2022-10-17T03:02:44.137Z,101800.40
2022-10-17T03:03:46.428Z,101803.80
2022-10-17T03:04:48.669Z,101807.16
2022-10-17T03:05:51.334Z,101814.14
2022-10-17T03:06:53.605Z,101812.42
2022-10-17T03:07:56.473Z,101820.22
2022-10-17T03:08:58.365Z,101821.98
2022-10-17T03:10:00.362Z,101818.58
2022-10-17T03:11:02.642Z,101820.34
2022-10-17T03:12:05.263Z,101817.79
2022-10-17T03:13:07.270Z,101823.87
2022-10-17T03:14:09.474Z,101824.63
2022-10-17T03:15:12.518Z,101826.34
2022-10-17T03:16:14.757Z,101825.12
2022-10-17T03:17:17.290Z,101829.58
2022-10-17T03:18:19.172Z,101834.83
2022-10-17T03:19:21.243Z,101831.39
2022-10-17T03:20:23.276Z,101834.88
2022-10-17T03:21:25.174Z,101836.63
2022-10-17T03:22:27.401Z,101831.30
2022-10-17T03:23:29.560Z,101834.92
2022-10-17T03:24:31.442Z,101843.66
2022-10-17T03:25:33.448Z,101840.22
2022-10-17T03:26:35.575Z,101840.30
2022-10-17T03:27:37.868Z,101846.44
2022-10-17T03:28:40.116Z,101844.70
2022-10-17T03:29:42.284Z,101847.36
2022-10-17T03:30:44.293Z,101838.70
2022-10-17T03:31:46.175Z,101837.00
2022-10-17T03:32:48.087Z,101846.61
2022-10-17T03:33:49.980Z,101847.44
2022-10-17T03:34:51.884Z,101845.75
2022-10-17T03:36:00.517Z,101843.14
2022-10-17T03:37:02.512Z,101850.96
2022-10-17T03:38:05.648Z,101844.84
2022-10-17T03:39:07.738Z,101856.10
2022-10-17T03:40:10.909Z,101860.45
2022-10-17T03:41:13.044Z,101860.37
2022-10-17T03:42:14.923Z,101860.45
2022-10-17T03:43:16.910Z,101863.10
2022-10-17T03:44:20.683Z,101871.88
2022-10-17T03:45:22.662Z,101867.63
2022-10-17T03:46:29.619Z,101866.77
2022-10-17T03:47:32.500Z,101866.84
2022-10-17T03:48:34.873Z,101867.67
2022-10-17T03:49:36.766Z,101874.58
2022-10-17T03:50:38.951Z,101869.34
2022-10-17T03:51:42.846Z,101869.32
2022-10-17T03:52:48.761Z,101824.69
2022-10-17T03:53:52.698Z,101864.95
2022-10-17T03:54:54.700Z,101862.31
2022-10-17T03:56:00.980Z,101869.24
2022-10-17T03:57:05.016Z,101867.48
2022-10-17T03:58:07.247Z,101865.73
2022-10-17T03:59:12.667Z,101857.91
2022-10-17T04:00:17.139Z,101860.45
2022-10-17T04:01:21.079Z,101858.78
2022-10-17T04:02:23.444Z,101855.30
2022-10-17T04:03:27.539Z,101852.58
2022-10-17T04:04:29.505Z,101863.00
2022-10-17T04:05:31.863Z,101857.79
2022-10-17T04:06:35.273Z,101814.82
2022-10-17T04:07:39.908Z,101863.84
2022-10-17T04:08:42.358Z,101867.42
2022-10-17T04:09:45.550Z,101861.40
2022-10-17T04:10:49.479Z,101862.27
2022-10-17T04:11:51.657Z,101857.91
2022-10-17T04:13:02.668Z,101863.13
2022-10-17T04:14:05.391Z,101862.31
2022-10-17T04:15:08.760Z,101857.95
2022-10-17T04:16:16.265Z,101859.70
2022-10-17T04:17:18.360Z,101869.23
2022-10-17T04:18:20.390Z,101867.49
2022-10-17T04:19:22.275Z,101867.53
2022-10-17T04:20:24.276Z,101861.39
2022-10-17T04:21:28.998Z,101865.71
2022-10-17T04:22:32.686Z,101866.59
2022-10-17T04:23:35.124Z,101864.06
2022-10-17T04:24:37.016Z,101859.69
2022-10-17T04:25:38.921Z,101852.67
2022-10-17T04:26:41.046Z,101850.10
2022-10-17T04:27:42.940Z,101851.78
2022-10-17T04:28:44.815Z,101849.22
2022-10-17T04:29:46.815Z,101856.19
2022-10-17T04:31:01.187Z,101854.45
2022-10-17T04:32:03.520Z,101845.75
2022-10-17T04:33:05.608Z,101844.89
2022-10-17T04:34:07.563Z,101840.61
2022-10-17T04:35:09.571Z,101842.39
2022-10-17T04:36:15.910Z,101838.09
2022-10-17T04:37:17.940Z,101838.95
2022-10-17T04:38:20.704Z,101837.19
2022-10-17T04:39:23.780Z,101844.17
2022-10-17T04:40:25.786Z,101836.32
2022-10-17T04:41:27.683Z,101840.70
2022-10-17T04:42:32.953Z,101833.66
2022-10-17T04:43:36.607Z,101849.30
2022-10-17T04:44:38.571Z,101851.00
2022-10-17T04:45:40.577Z,101867.61
2022-10-17T04:46:42.680Z,101867.63
2022-10-17T04:47:44.609Z,101860.61
2022-10-17T04:48:48.445Z,101856.37
2022-10-17T04:49:50.630Z,101858.92
2022-10-17T04:50:58.274Z,101855.50
2022-10-17T04:52:00.263Z,101858.13
2022-10-17T04:53:02.323Z,101856.30
2022-10-17T04:54:04.505Z,101855.43
2022-10-17T04:55:07.325Z,101857.23
2022-10-17T04:56:16.353Z,101852.80
2022-10-17T04:57:19.498Z,101847.55
2022-10-17T04:58:21.989Z,101847.55
2022-10-17T04:59:23.896Z,101851.92
2022-10-17T05:00:25.882Z,101852.83
2022-10-17T05:01:27.930Z,101852.77
2022-10-17T05:02:30.206Z,101858.84
2022-10-17T05:03:33.906Z,101848.41
2022-10-17T05:04:36.010Z,101847.59
2022-10-17T05:05:41.703Z,101854.60
2022-10-17T05:06:43.827Z,101854.60
2022-10-17T05:07:45.783Z,101856.33
2022-10-17T05:08:47.869Z,101864.21
2022-10-17T05:09:49.740Z,101858.95
2022-10-17T05:10:51.800Z,101861.60
2022-10-17T05:11:54.103Z,101863.38
2022-10-17T05:12:56.212Z,101852.10
2022-10-17T05:14:00.229Z,101861.69
2022-10-17T05:15:02.121Z,101861.77
2022-10-17T05:16:04.733Z,101861.77
2022-10-17T05:17:06.674Z,101865.25
2022-10-17T05:18:08.570Z,101869.61
2022-10-17T05:19:12.706Z,101870.48
2022-10-17T05:20:15.293Z,101867.84
2022-10-17T05:21:17.491Z,101869.58
2022-10-17T05:22:19.510Z,101870.47
2022-10-17T05:23:22.258Z,101874.83
2022-10-17T05:24:24.142Z,101875.80
2022-10-17T05:25:26.197Z,101875.80
2022-10-17T05:26:28.193Z,101880.13
2022-10-17T05:27:30.100Z,101874.03
2022-10-17T05:28:33.353Z,101873.23
2022-10-17T05:29:35.323Z,101833.84
2022-10-17T05:30:37.721Z,101879.38
2022-10-17T05:32:51.937Z,101883.06
2022-10-17T05:33:54.397Z,101887.36
2022-10-17T05:34:56.423Z,101877.86
2022-10-17T05:35:59.181Z,101870.89
2022-10-17T05:37:01.279Z,101883.17
2022-10-17T05:38:03.221Z,101888.47
2022-10-17T05:39:05.143Z,101860.55
2022-10-17T05:40:08.351Z,101884.23
2022-10-17T05:41:10.397Z,101882.53
2022-10-17T05:42:14.938Z,101886.97
2022-10-17T05:43:17.426Z,101874.82
2022-10-17T05:44:19.520Z,101811.92
2022-10-17T05:45:21.784Z,101866.16
2022-10-17T05:46:23.767Z,101833.83
2022-10-17T05:47:25.875Z,101864.47
2022-10-17T05:48:27.790Z,101862.77
2022-10-17T05:49:43.963Z,101868.88
2022-10-17T05:50:34.523Z,101875.88
2022-10-17T05:51:36.489Z,101880.27
2022-10-17T05:52:38.573Z,101881.16
2022-10-17T05:53:41.318Z,101875.95
2022-10-17T05:54:43.492Z,101882.06
2022-10-17T05:55:45.425Z,101885.58
2022-10-17T05:56:52.918Z,101883.84
2022-10-17T05:57:54.837Z,101880.38
2022-10-17T05:59:01.004Z,101882.14
2022-10-17T06:00:01.710Z,101880.43
2022-10-17T06:01:07.129Z,101875.19
2022-10-17T06:02:12.497Z,101880.45
2022-10-17T06:03:14.750Z,101879.62
2022-10-17T06:04:17.199Z,101883.98
2022-10-17T06:05:19.763Z,101880.51
2022-10-17T06:06:22.295Z,101875.25
2022-10-17T06:07:24.201Z,101876.16
2022-10-17T06:08:26.087Z,101880.52
2022-10-17T06:09:28.427Z,101885.77
2022-10-17T06:10:30.427Z,101881.39
2022-10-17T06:11:32.505Z,101880.50
2022-10-17T06:12:34.408Z,101877.88
2022-10-17T06:13:36.695Z,101884.87
2022-10-17T06:14:38.585Z,101876.97
2022-10-17T06:15:40.462Z,101870.80
2022-10-17T06:16:42.477Z,101868.97
2022-10-17T06:17:44.483Z,101866.27
2022-10-17T06:18:46.397Z,101860.89
2022-10-17T06:19:48.435Z,101869.59
2022-10-17T06:20:50.424Z,101871.23
2022-10-17T06:21:52.400Z,101877.20
2022-10-17T06:22:55.036Z,101874.47
2022-10-17T06:23:56.952Z,101872.57
2022-10-17T06:24:58.829Z,101879.42
2022-10-17T06:26:02.860Z,101873.10
2022-10-17T06:27:09.339Z,101872.90
2022-10-17T06:28:08.719Z,101870.86
2022-10-17T06:29:10.717Z,101877.59
2022-10-17T06:30:13.767Z,101874.19
2022-10-17T06:31:16.936Z,101888.20
2022-10-17T06:32:19.113Z,101879.94
2022-10-17T06:33:21.549Z,101879.62
2022-10-17T06:34:23.637Z,101884.75
2022-10-17T06:35:25.528Z,101882.95
2022-10-17T06:36:27.512Z,101884.59
2022-10-17T06:37:36.452Z,101879.34
2022-10-17T06:38:37.778Z,101885.80
2022-10-17T06:39:39.671Z,101883.84
2022-10-17T06:40:41.667Z,101880.13
2022-10-17T06:41:43.809Z,101885.86
2022-10-17T06:42:45.767Z,101891.06
2022-10-17T06:43:48.179Z,101901.53
2022-10-17T06:44:50.150Z,101895.14
2022-10-17T06:45:52.061Z,101896.12
2022-10-17T06:46:54.425Z,101893.44
2022-10-17T06:47:56.300Z,101893.39
2022-10-17T06:48:58.176Z,101898.74
2022-10-17T06:50:00.059Z,101889.91
2022-10-17T06:51:04.057Z,101883.61
2022-10-17T06:52:06.098Z,101888.78
2022-10-17T06:53:08.055Z,101883.72
2022-10-17T06:54:09.933Z,101881.14
2022-10-17T06:55:12.029Z,101881.05
2022-10-17T06:56:14.714Z,101878.34
2022-10-17T06:57:17.421Z,101879.92
2022-10-17T06:58:19.416Z,101872.64
2022-10-17T06:59:22.149Z,101888.45
2022-10-17T07:00:24.412Z,101882.20
2022-10-17T07:01:26.356Z,101887.31
2022-10-17T07:02:28.566Z,101889.15
2022-10-17T07:03:31.768Z,101881.11
2022-10-17T07:04:33.676Z,101882.89
2022-10-17T07:05:35.555Z,101863.77
2022-10-17T07:06:38.065Z,101889.06
2022-10-17T07:07:43.116Z,101892.30
2022-10-17T07:08:45.216Z,101886.74
2022-10-17T07:09:47.135Z,101881.42
2022-10-17T07:10:50.108Z,101884.68
2022-10-17T07:11:54.017Z,101883.02
2022-10-17T07:12:55.955Z,101879.36
2022-10-17T07:13:58.061Z,101884.48
2022-10-17T07:15:00.064Z,101883.84
2022-10-17T07:16:02.454Z,101879.45
2022-10-17T07:17:04.597Z,101883.63
2022-10-17T07:18:06.986Z,101875.80
2022-10-17T07:19:08.951Z,101872.92
2022-10-17T07:20:12.103Z,101887.20
2022-10-17T07:21:14.105Z,101887.92
2022-10-17T07:22:16.123Z,101888.91
2022-10-17T07:23:21.100Z,101891.33
2022-10-17T07:24:23.274Z,101894.47
2022-10-17T07:25:25.518Z,101899.23
2022-10-17T07:26:27.964Z,101898.34
2022-10-17T07:27:30.273Z,101898.73
2022-10-17T07:28:38.157Z,101896.77
2022-10-17T07:29:40.531Z,101890.31
2022-10-17T07:30:42.916Z,101898.17
2022-10-17T07:31:45.269Z,101899.13
2022-10-17T07:32:47.458Z,101897.13
2022-10-17T07:33:49.934Z,101893.77
2022-10-17T07:34:52.141Z,101904.78
2022-10-17T07:35:54.025Z,101901.95
2022-10-17T07:36:56.607Z,101910.04
2022-10-17T07:37:58.528Z,101908.70
2022-10-17T07:39:00.605Z,101913.84
2022-10-17T07:40:03.638Z,101907.73
2022-10-17T07:41:07.549Z,101897.22
2022-10-17T07:42:09.630Z,101896.62
2022-10-17T07:43:11.666Z,101898.81
2022-10-17T07:44:13.591Z,101893.59
2022-10-17T07:45:15.494Z,101887.18
2022-10-17T07:46:17.597Z,101879.16
2022-10-17T07:47:20.309Z,101879.94
2022-10-17T07:48:23.676Z,101887.40
2022-10-17T07:49:25.588Z,101882.84
2022-10-17T07:50:28.926Z,101880.11
2022-10-17T07:51:31.159Z,101896.24
2022-10-17T07:52:33.554Z,101890.64
2022-10-17T07:53:37.443Z,101890.29
2022-10-17T07:54:39.752Z,101895.50
2022-10-17T07:55:42.457Z,101888.87
2022-10-17T07:56:44.598Z,101889.92
2022-10-17T07:57:46.488Z,101881.94
2022-10-17T07:58:48.467Z,101878.19
2022-10-17T07:59:50.711Z,101870.52
2022-10-17T08:00:52.881Z,101874.80
2022-10-17T08:01:59.274Z,101879.69
2022-10-17T08:03:01.291Z,101874.34
2022-10-17T08:04:03.421Z,101873.45
2022-10-17T08:05:06.160Z,101864.81
2022-10-17T08:06:08.145Z,101874.84
2022-10-17T08:07:19.572Z,101870.66
2022-10-17T08:08:17.530Z,101875.53
2022-10-17T08:09:18.558Z,101876.34
2022-10-17T08:10:21.792Z,101876.47
2022-10-17T08:11:23.958Z,101872.45
2022-10-17T08:12:27.179Z,101875.09
2022-10-17T08:13:29.507Z,101871.41
2022-10-17T08:14:31.645Z,101868.66
2022-10-17T08:15:33.541Z,101865.11
2022-10-17T08:16:36.035Z,101865.38
2022-10-17T08:17:38.936Z,101867.85
2022-10-17T08:18:42.655Z,101867.63
2022-10-17T08:19:44.587Z,101871.95
2022-10-17T08:20:46.610Z,101870.69
2022-10-17T08:22:59.838Z,101859.36
2022-10-17T08:24:01.731Z,101862.05
2022-10-17T08:25:04.962Z,101860.87
2022-10-17T08:26:08.504Z,101853.77
2022-10-17T08:27:10.447Z,101849.51
2022-10-17T08:28:12.406Z,101854.81
2022-10-17T08:29:15.915Z,101853.48
2022-10-17T08:30:18.026Z,101852.30
2022-10-17T08:31:20.704Z,101852.49
2022-10-17T08:32:25.974Z,101849.12
2022-10-17T08:33:27.903Z,101852.59
2022-10-17T08:34:29.819Z,101854.14
2022-10-17T08:35:31.710Z,101853.01
2022-10-17T08:36:33.893Z,101847.75
2022-10-17T08:37:36.073Z,101844.95
2022-10-17T08:38:40.365Z,101844.75
2022-10-17T08:39:42.555Z,101841.80
2022-10-17T08:40:48.159Z,101843.95
2022-10-17T08:42:24.394Z,101843.28
2022-10-17T08:43:53.205Z,101853.66
2022-10-17T08:45:15.870Z,101845.56
2022-10-17T08:46:20.029Z,101841.84
2022-10-17T08:48:48.698Z,101830.33
2022-10-17T08:49:54.363Z,101830.83
2022-10-17T08:51:03.257Z,101832.79
2022-10-17T08:52:08.947Z,101828.72
2022-10-17T08:53:32.788Z,101830.48
2022-10-17T08:55:54.045Z,101825.98
2022-10-17T08:56:56.914Z,101823.37
2022-10-17T08:57:59.409Z,101827.59
2022-10-17T08:59:08.126Z,101820.59
2022-10-17T09:00:14.588Z,101822.12
2022-10-17T09:01:26.566Z,101826.63
2022-10-17T09:02:37.876Z,101814.50
2022-10-17T09:03:44.635Z,101819.76
2022-10-17T09:04:56.521Z,101809.34
2022-10-17T09:06:07.987Z,101820.61
2022-10-17T09:07:13.669Z,101818.12
2022-10-17T09:08:34.599Z,101826.81
2022-10-17T09:09:40.351Z,101825.58
2022-10-17T09:10:46.122Z,101831.69
2022-10-17T09:11:58.022Z,101826.27
2022-10-17T09:13:06.981Z,101829.03
2022-10-17T09:14:31.229Z,101832.16
2022-10-17T09:16:01.585Z,101830.50
2022-10-17T09:17:19.545Z,101829.39
2022-10-17T09:18:28.049Z,101832.16
2022-10-17T09:19:42.474Z,101825.59
2022-10-17T09:20:51.025Z,101825.19
2022-10-17T09:21:59.791Z,101825.94
2022-10-17T09:24:21.743Z,101834.72
2022-10-17T09:25:25.240Z,101829.69
2022-10-17T09:26:28.050Z,101828.03
2022-10-17T09:27:33.688Z,101831.44
2022-10-17T09:28:38.229Z,101829.74
2022-10-17T09:29:44.033Z,101829.69
2022-10-17T09:30:55.416Z,101821.54
2022-10-17T09:32:03.972Z,101826.63
2022-10-17T09:33:28.436Z,101833.69
2022-10-17T09:34:26.683Z,101834.55
2022-10-17T09:35:28.946Z,101832.57
2022-10-17T09:36:36.047Z,101826.28
2022-10-17T09:37:38.453Z,101824.30
2022-10-17T09:38:43.187Z,101826.84
2022-10-17T09:39:45.768Z,101825.93
2022-10-17T09:40:56.954Z,101827.88
2022-10-17T09:42:00.854Z,101826.16
2022-10-17T09:43:05.199Z,101825.16
2022-10-17T09:44:16.688Z,101819.09
2022-10-17T09:45:21.649Z,101824.98
2022-10-17T09:46:35.822Z,101825.60
2022-10-17T09:50:24.078Z,101824.27
2022-10-17T09:51:26.874Z,101823.95
2022-10-17T09:52:35.771Z,101822.27
2022-10-17T09:53:40.675Z,101832.72
2022-10-17T09:54:49.497Z,101828.08
2022-10-17T09:55:58.261Z,101827.17
2022-10-17T09:57:03.930Z,101820.48
2022-10-17T09:58:07.813Z,101796.53
2022-10-17T09:59:13.932Z,101819.37
2022-10-17T10:00:22.465Z,101816.65
2022-10-17T10:01:27.579Z,101825.06
2022-10-17T10:02:31.071Z,101817.76
2022-10-17T10:03:33.410Z,101821.48
2022-10-17T10:04:41.544Z,101818.70
2022-10-17T10:05:41.110Z,101813.94
2022-10-17T10:07:04.341Z,101816.90
2022-10-17T10:08:18.308Z,101807.36
2022-10-17T10:09:23.184Z,101813.28
2022-10-17T10:10:28.173Z,101817.69
2022-10-17T10:11:49.236Z,101806.92
2022-10-17T10:13:16.524Z,101809.45
2022-10-17T10:14:34.828Z,101799.54
2022-10-17T10:15:39.786Z,101803.24
2022-10-17T10:16:44.656Z,101801.72
2022-10-17T10:17:46.732Z,101804.13
2022-10-17T10:18:50.966Z,101793.42
2022-10-17T10:19:53.716Z,101803.88
2022-10-17T10:21:08.263Z,101802.14
2022-10-17T10:22:15.927Z,101806.41
2022-10-17T10:23:18.940Z,101803.11
2022-10-17T10:24:20.843Z,101777.83
2022-10-17T10:25:22.911Z,101802.72
2022-10-17T10:26:28.616Z,101791.54
2022-10-17T10:27:30.787Z,101793.48
2022-10-17T10:28:35.644Z,101791.61
2022-10-17T10:29:43.402Z,101786.28
2022-10-17T10:30:48.838Z,101786.74
2022-10-17T10:31:52.867Z,101782.47
2022-10-17T10:32:58.151Z,101787.34
2022-10-17T10:34:03.091Z,101793.65
2022-10-17T10:35:23.286Z,101788.19
2022-10-17T10:36:27.795Z,101787.00
2022-10-17T10:37:39.358Z,101789.02
2022-10-17T10:38:41.965Z,101786.22
2022-10-17T10:39:50.819Z,101808.51
2022-10-17T10:40:57.324Z,101812.85
2022-10-17T10:42:02.369Z,101799.48
2022-10-17T10:43:05.973Z,101808.57
2022-10-17T10:44:11.626Z,101804.56
2022-10-17T10:45:46.443Z,101807.45
2022-10-17T10:46:28.191Z,101804.04
2022-10-17T10:47:32.511Z,101800.59
2022-10-17T10:48:36.426Z,101797.72
2022-10-17T10:49:38.909Z,101794.59
2022-10-17T10:52:03.281Z,101796.03
2022-10-17T10:53:09.068Z,101791.93
2022-10-17T10:54:17.520Z,101791.93
2022-10-17T10:55:32.127Z,101790.98
2022-10-17T10:56:43.678Z,101798.77
2022-10-17T10:57:48.850Z,101797.78
2022-10-17T10:59:10.128Z,101796.34
2022-10-17T11:00:16.635Z,101796.55
2022-10-17T11:01:25.003Z,101797.51
2022-10-17T11:02:39.427Z,101798.94
2022-10-17T11:04:03.361Z,101805.44
2022-10-17T11:05:15.425Z,101805.88
2022-10-17T11:06:21.704Z,101797.27
2022-10-17T11:07:33.498Z,101802.70
2022-10-17T11:08:44.939Z,101799.86
2022-10-17T11:10:12.304Z,101793.34
2022-10-17T11:11:20.911Z,101787.29
2022-10-17T11:12:32.849Z,101779.06
2022-10-17T11:13:44.680Z,101779.33
2022-10-17T11:15:02.653Z,101776.46
2022-10-17T11:16:43.546Z,101768.40
2022-10-17T11:17:52.217Z,101768.27
2022-10-17T11:19:16.212Z,101759.34
2022-10-17T11:20:25.585Z,101765.70
2022-10-17T11:22:51.378Z,101761.51
2022-10-17T11:23:59.799Z,101765.77
2022-10-17T11:25:24.086Z,101757.45
2022-10-17T11:26:29.768Z,101753.87
2022-10-17T11:27:33.734Z,101750.34
2022-10-17T11:28:36.039Z,101754.86
2022-10-17T11:29:41.504Z,101753.80
2022-10-17T11:30:47.312Z,101750.27
2022-10-17T11:31:53.257Z,101748.39
2022-10-17T11:32:59.309Z,101745.59
2022-10-17T11:34:04.983Z,101748.25
2022-10-17T11:35:29.026Z,101737.59
2022-10-17T11:36:35.119Z,101740.25
2022-10-17T11:37:40.931Z,101729.38
2022-10-17T11:38:46.936Z,101738.37
2022-10-17T11:40:05.204Z,101739.61
2022-10-17T11:41:13.769Z,101736.84
2022-10-17T11:42:22.470Z,101738.30
2022-10-17T11:43:34.035Z,101732.11
2022-10-17T11:44:38.926Z,101731.89
2022-10-17T11:45:44.764Z,101730.92
2022-10-17T11:46:50.582Z,101732.17
2022-10-17T11:48:02.391Z,101733.38
2022-10-17T11:49:19.181Z,101727.19
2022-10-17T11:53:02.638Z,101721.48
2022-10-17T11:53:57.176Z,101714.58
2022-10-17T11:56:19.518Z,101715.63
2022-10-17T11:57:48.421Z,101716.52
2022-10-17T11:58:54.589Z,101716.36
2022-10-17T12:00:20.350Z,101710.29
2022-10-17T12:01:40.277Z,101710.00
2022-10-17T12:02:48.877Z,101697.51
2022-10-17T12:03:57.414Z,101725.59
2022-10-17T12:05:03.164Z,101714.92
2022-10-17T12:06:29.566Z,101709.81
2022-10-17T12:08:59.013Z,101700.66
2022-10-17T12:10:38.534Z,101700.10
2022-10-17T12:11:50.607Z,101701.29
2022-10-17T12:12:52.647Z,101697.98
2022-10-17T12:13:55.759Z,101705.10
2022-10-17T12:15:18.268Z,101702.66
2022-10-17T12:16:24.077Z,101704.40
2022-10-17T12:17:36.615Z,101706.41
2022-10-17T12:18:38.789Z,101707.41
2022-10-17T12:19:40.908Z,101711.18
2022-10-17T12:20:43.093Z,101714.92
2022-10-17T12:22:00.699Z,101706.99
2022-10-17T12:23:12.383Z,101704.17
2022-10-17T12:24:26.700Z,101709.36
2022-10-17T12:26:41.651Z,101701.69
2022-10-17T12:27:44.315Z,101690.53
2022-10-17T12:28:47.575Z,101698.84
2022-10-17T12:29:51.992Z,101700.10
2022-10-17T12:31:03.374Z,101702.08
2022-10-17T12:32:12.210Z,101699.33
2022-10-17T12:33:20.728Z,101697.55
2022-10-17T12:34:23.869Z,101700.73
2022-10-17T12:35:27.346Z,101691.94
2022-10-17T12:36:34.572Z,101692.42
2022-10-17T12:37:52.974Z,101690.84
2022-10-17T12:39:05.170Z,101685.34
2022-10-17T12:40:37.646Z,101685.66
2022-10-17T12:41:44.639Z,101685.50
2022-10-17T12:42:49.400Z,101694.05
2022-10-17T12:43:53.131Z,101699.92
2022-10-17T12:44:55.179Z,101697.58
2022-10-17T12:45:58.942Z,101708.58
2022-10-17T12:47:10.544Z,101698.36
2022-10-17T12:48:34.465Z,101702.95
2022-10-17T12:49:42.873Z,101700.10
2022-10-17T12:51:30.859Z,101706.69
2022-10-17T12:52:18.463Z,101695.56
2022-10-17T12:53:24.484Z,101699.55
2022-10-17T12:54:31.402Z,101697.09
2022-10-17T12:55:34.328Z,101694.83
2022-10-17T12:56:40.105Z,101692.67
2022-10-17T12:57:58.679Z,101694.76
2022-10-17T12:59:02.836Z,101686.22